sensor_id;sensor_type;location;lat;lon;timestamp;pressure;altitude;pressure_sealevel;temperature;humidity
7182;BME280;3632;42.724;23.298;2024-03-08T00:01:33;95452.53;;;6.73;100.00
7182;BME280;3632;42.724;23.298;2024-03-08T00:04:00;95449.34;;;6.83;100.00
7182;BME280;3632;42.724;23.298;2024-03-08T00:06:27;95460.56;;;6.79;100.00
7182;BME280;3632;42.724;23.298;2024-03-08T00:08:53;95447.66;;;7.11;100.00
7182;BME280;3632;42.724;23.298;2024-03-08T00:11:21;95436.03;;;6.94;100.00
7182;BME280;3632;42.724;23.298;2024-03-08T00:13:52;95401.06;;;6.72;100.00
7182;BME280;3632;42.724;23.298;2024-03-08T00:16:19;95439.41;;;6.80;100.00
7182;BME280;3632;42.724;23.298;2024-03-08T00:18:46;95414.97;;;6.79;100.00
7182;BME280;3632;42.724;23.298;2024-03-08T00:21:14;95458.47;;;6.86;100.00
7182;BME280;3632;42.724;23.298;2024-03-08T00:23:41;95275.69;;;5.83;100.00
7182;BME280;3632;42.724;23.298;2024-03-08T00:26:08;95437.75;;;6.79;100.00
7182;BME280;3632;42.724;23.298;2024-03-08T00:28:35;95436.44;;;7.01;100.00
7182;BME280;3632;42.724;23.298;2024-03-08T00:31:03;95429.88;;;7.25;100.00
7182;BME280;3632;42.724;23.298;2024-03-08T00:33:29;95436.78;;;7.09;100.00
7182;BME280;3632;42.724;23.298;2024-03-08T00:35:56;95442.31;;;6.60;100.00
7182;BME280;3632;42.724;23.298;2024-03-08T00:38:22;95435.81;;;6.56;100.00
7182;BME280;3632;42.724;23.298;2024-03-08T00:40:49;95430.03;;;6.40;100.00
7182;BME280;3632;42.724;23.298;2024-03-08T00:43:16;95425.59;;;6.29;100.00
7182;BME280;3632;42.724;23.298;2024-03-08T00:45:43;95429.88;;;6.15;100.00
7182;BME280;3632;42.724;23.298;2024-03-08T00:48:11;95353.47;;;5.80;100.00
7182;BME280;3632;42.724;23.298;2024-03-08T00:50:38;95426.69;;;6.25;100.00
7182;BME280;3632;42.724;23.298;2024-03-08T00:53:05;95423.50;;;6.50;100.00
7182;BME280;3632;42.724;23.298;2024-03-08T00:55:32;95423.16;;;6.42;100.00
7182;BME280;3632;42.724;23.298;2024-03-08T00:57:58;95334.56;;;5.71;100.00
7182;BME280;3632;42.724;23.298;2024-03-08T01:00:25;95458.38;;;5.88;100.00
7182;BME280;3632;42.724;23.298;2024-03-08T01:02:52;95421.81;;;6.22;100.00
7182;BME280;3632;42.724;23.298;2024-03-08T01:05:20;95420.09;;;6.09;100.00
7182;BME280;3632;42.724;23.298;2024-03-08T01:07:48;95416.94;;;6.05;100.00
7182;BME280;3632;42.724;23.298;2024-03-08T01:10:15;95405.63;;;6.11;100.00
7182;BME280;3632;42.724;23.298;2024-03-08T01:12:41;95400.75;;;6.22;100.00
7182;BME280;3632;42.724;23.298;2024-03-08T01:15:09;95404.19;;;6.21;100.00
7182;BME280;3632;42.724;23.298;2024-03-08T01:17:37;95404.19;;;6.21;100.00
7182;BME280;3632;42.724;23.298;2024-03-08T01:20:04;95406.72;;;6.21;100.00
7182;BME280;3632;42.724;23.298;2024-03-08T01:22:33;95397.31;;;6.23;100.00
7182;BME280;3632;42.724;23.298;2024-03-08T01:24:59;95398.03;;;6.25;100.00
7182;BME280;3632;42.724;23.298;2024-03-08T01:27:26;95397.50;;;6.06;100.00
7182;BME280;3632;42.724;23.298;2024-03-08T01:29:53;95393.41;;;6.46;100.00
7182;BME280;3632;42.724;23.298;2024-03-08T01:32:19;95396.81;;;6.59;100.00
7182;BME280;3632;42.724;23.298;2024-03-08T01:34:48;95392.34;;;6.35;100.00
7182;BME280;3632;42.724;23.298;2024-03-08T01:37:15;95385.25;;;6.55;100.00
7182;BME280;3632;42.724;23.298;2024-03-08T01:39:43;95385.25;;;6.69;100.00
7182;BME280;3632;42.724;23.298;2024-03-08T01:42:10;95390.16;;;6.84;100.00
7182;BME280;3632;42.724;23.298;2024-03-08T01:44:40;95377.31;;;6.61;100.00
7182;BME280;3632;42.724;23.298;2024-03-08T01:47:10;95384.34;;;6.56;100.00
7182;BME280;3632;42.724;23.298;2024-03-08T01:49:37;95389.53;;;6.40;100.00
7182;BME280;3632;42.724;23.298;2024-03-08T01:52:05;95390.28;;;6.28;100.00
7182;BME280;3632;42.724;23.298;2024-03-08T01:54:32;95311.66;;;6.03;100.00
7182;BME280;3632;42.724;23.298;2024-03-08T01:57:00;95381.34;;;6.77;100.00
7182;BME280;3632;42.724;23.298;2024-03-08T01:59:27;95381.66;;;6.45;100.00
7182;BME280;3632;42.724;23.298;2024-03-08T02:01:55;95354.59;;;6.59;100.00
7182;BME280;3632;42.724;23.298;2024-03-08T02:04:22;95386.81;;;6.29;100.00
7182;BME280;3632;42.724;23.298;2024-03-08T02:06:49;95378.25;;;6.17;100.00
7182;BME280;3632;42.724;23.298;2024-03-08T02:09:17;95383.31;;;6.31;100.00
7182;BME280;3632;42.724;23.298;2024-03-08T02:11:44;95387.28;;;6.35;100.00
7182;BME280;3632;42.724;23.298;2024-03-08T02:14:12;95382.56;;;6.43;100.00
7182;BME280;3632;42.724;23.298;2024-03-08T02:16:39;95380.09;;;6.56;100.00
7182;BME280;3632;42.724;23.298;2024-03-08T02:19:06;95381.75;;;6.29;100.00
7182;BME280;3632;42.724;23.298;2024-03-08T02:21:36;95382.22;;;6.35;100.00
7182;BME280;3632;42.724;23.298;2024-03-08T02:24:04;95383.13;;;6.34;100.00
7182;BME280;3632;42.724;23.298;2024-03-08T02:26:30;95379.41;;;6.40;100.00
7182;BME280;3632;42.724;23.298;2024-03-08T02:28:57;95386.38;;;6.36;100.00
7182;BME280;3632;42.724;23.298;2024-03-08T02:31:24;95386.47;;;6.35;100.00
7182;BME280;3632;42.724;23.298;2024-03-08T02:33:50;95371.81;;;6.12;100.00
7182;BME280;3632;42.724;23.298;2024-03-08T02:36:17;95218.91;;;5.46;100.00
7182;BME280;3632;42.724;23.298;2024-03-08T02:38:45;95315.13;;;6.28;99.74
7182;BME280;3632;42.724;23.298;2024-03-08T02:41:12;95393.97;;;6.92;99.22
7182;BME280;3632;42.724;23.298;2024-03-08T02:43:39;95395.66;;;7.18;99.05
7182;BME280;3632;42.724;23.298;2024-03-08T02:46:06;95387.44;;;7.14;98.11
7182;BME280;3632;42.724;23.298;2024-03-08T02:48:33;95365.78;;;7.23;97.02
7182;BME280;3632;42.724;23.298;2024-03-08T02:51:00;95386.63;;;7.41;96.76
7182;BME280;3632;42.724;23.298;2024-03-08T02:53:27;95340.88;;;7.03;96.28
7182;BME280;3632;42.724;23.298;2024-03-08T02:55:55;95394.44;;;7.11;96.75
7182;BME280;3632;42.724;23.298;2024-03-08T02:58:22;95322.22;;;6.50;96.60
7182;BME280;3632;42.724;23.298;2024-03-08T03:00:49;95392.41;;;6.89;96.65
7182;BME280;3632;42.724;23.298;2024-03-08T03:03:16;95384.41;;;6.68;98.27
7182;BME280;3632;42.724;23.298;2024-03-08T03:05:42;95390.44;;;6.80;98.37
7182;BME280;3632;42.724;23.298;2024-03-08T03:08:09;95387.50;;;6.73;96.57
7182;BME280;3632;42.724;23.298;2024-03-08T03:10:37;95397.56;;;6.87;96.05
7182;BME280;3632;42.724;23.298;2024-03-08T03:13:05;95391.41;;;6.65;94.93
7182;BME280;3632;42.724;23.298;2024-03-08T03:15:32;95390.78;;;6.61;95.20
7182;BME280;3632;42.724;23.298;2024-03-08T03:18:00;95432.88;;;6.76;94.88
7182;BME280;3632;42.724;23.298;2024-03-08T03:20:27;95400.41;;;6.28;95.49
7182;BME280;3632;42.724;23.298;2024-03-08T03:22:58;95352.13;;;5.88;97.09
7182;BME280;3632;42.724;23.298;2024-03-08T03:25:27;95411.03;;;6.47;97.05
7182;BME280;3632;42.724;23.298;2024-03-08T03:27:58;95394.53;;;6.27;96.53
7182;BME280;3632;42.724;23.298;2024-03-08T03:30:26;95175.13;;;4.89;95.08
7182;BME280;3632;42.724;23.298;2024-03-08T03:32:58;95463.84;;;6.11;93.90
7182;BME280;3632;42.724;23.298;2024-03-08T03:35:26;95409.78;;;6.26;91.86
7182;BME280;3632;42.724;23.298;2024-03-08T03:37:52;95421.63;;;5.97;92.02
7182;BME280;3632;42.724;23.298;2024-03-08T03:40:27;95415.47;;;6.01;93.90
7182;BME280;3632;42.724;23.298;2024-03-08T03:42:54;95378.88;;;5.48;93.42
7182;BME280;3632;42.724;23.298;2024-03-08T03:45:21;95427.50;;;5.97;94.04
7182;BME280;3632;42.724;23.298;2024-03-08T03:47:49;95414.13;;;5.66;93.70
7182;BME280;3632;42.724;23.298;2024-03-08T03:50:17;95400.38;;;5.56;96.01
7182;BME280;3632;42.724;23.298;2024-03-08T03:52:44;95433.91;;;6.17;92.60
7182;BME280;3632;42.724;23.298;2024-03-08T03:55:12;95430.22;;;6.09;93.65
7182;BME280;3632;42.724;23.298;2024-03-08T03:57:38;95438.38;;;5.84;93.47
7182;BME280;3632;42.724;23.298;2024-03-08T04:00:06;95440.53;;;5.76;94.88
7182;BME280;3632;42.724;23.298;2024-03-08T04:02:36;95439.63;;;5.77;95.88
7182;BME280;3632;42.724;23.298;2024-03-08T04:05:06;95271.88;;;4.60;95.86
7182;BME280;3632;42.724;23.298;2024-03-08T04:07:34;95430.06;;;5.52;97.25
7182;BME280;3632;42.724;23.298;2024-03-08T04:10:01;95446.28;;;5.64;98.12
7182;BME280;3632;42.724;23.298;2024-03-08T04:12:27;95447.88;;;5.94;97.60
7182;BME280;3632;42.724;23.298;2024-03-08T04:14:56;95453.50;;;6.00;98.29
7182;BME280;3632;42.724;23.298;2024-03-08T04:17:22;95467.84;;;5.69;98.54
7182;BME280;3632;42.724;23.298;2024-03-08T04:19:50;95453.69;;;5.67;99.10
7182;BME280;3632;42.724;23.298;2024-03-08T04:22:18;95457.59;;;5.57;98.29
7182;BME280;3632;42.724;23.298;2024-03-08T04:24:45;95457.22;;;5.64;99.00
7182;BME280;3632;42.724;23.298;2024-03-08T04:27:13;95335.53;;;4.65;99.11
7182;BME280;3632;42.724;23.298;2024-03-08T04:29:40;95463.94;;;5.34;100.00
7182;BME280;3632;42.724;23.298;2024-03-08T04:32:10;95460.75;;;5.46;100.00
7182;BME280;3632;42.724;23.298;2024-03-08T04:34:38;95280.28;;;4.13;100.00
7182;BME280;3632;42.724;23.298;2024-03-08T04:37:05;95464.84;;;5.33;100.00
7182;BME280;3632;42.724;23.298;2024-03-08T04:39:33;95475.94;;;5.30;100.00
7182;BME280;3632;42.724;23.298;2024-03-08T04:42:02;95439.50;;;5.19;100.00
7182;BME280;3632;42.724;23.298;2024-03-08T04:44:30;95479.34;;;5.45;100.00
7182;BME280;3632;42.724;23.298;2024-03-08T04:46:57;95478.53;;;5.29;100.00
7182;BME280;3632;42.724;23.298;2024-03-08T04:49:24;95481.13;;;5.27;100.00
7182;BME280;3632;42.724;23.298;2024-03-08T04:51:51;95484.28;;;5.62;100.00
7182;BME280;3632;42.724;23.298;2024-03-08T04:54:17;95478.72;;;6.01;100.00
7182;BME280;3632;42.724;23.298;2024-03-08T04:56:45;95477.00;;;6.16;99.34
7182;BME280;3632;42.724;23.298;2024-03-08T04:59:12;95480.91;;;6.21;100.00
7182;BME280;3632;42.724;23.298;2024-03-08T05:01:39;95493.22;;;6.41;98.13
7182;BME280;3632;42.724;23.298;2024-03-08T05:04:06;95358.03;;;5.59;98.29
7182;BME280;3632;42.724;23.298;2024-03-08T05:06:32;95290.56;;;5.01;97.74
7182;BME280;3632;42.724;23.298;2024-03-08T05:08:59;95497.00;;;6.20;97.59
7182;BME280;3632;42.724;23.298;2024-03-08T05:11:26;95493.31;;;6.26;97.96
7182;BME280;3632;42.724;23.298;2024-03-08T05:13:54;95507.19;;;6.05;98.90
7182;BME280;3632;42.724;23.298;2024-03-08T05:16:21;95502.66;;;5.80;99.43
7182;BME280;3632;42.724;23.298;2024-03-08T05:18:49;95450.47;;;5.49;100.00
7182;BME280;3632;42.724;23.298;2024-03-08T05:21:16;95471.84;;;5.89;98.63
7182;BME280;3632;42.724;23.298;2024-03-08T05:23:45;95509.91;;;6.02;100.00
7182;BME280;3632;42.724;23.298;2024-03-08T05:26:12;95510.13;;;6.27;100.00
7182;BME280;3632;42.724;23.298;2024-03-08T05:28:39;95511.56;;;6.45;99.67
7182;BME280;3632;42.724;23.298;2024-03-08T05:31:07;95534.34;;;6.45;99.23
7182;BME280;3632;42.724;23.298;2024-03-08T05:33:34;95530.56;;;6.38;98.42
7182;BME280;3632;42.724;23.298;2024-03-08T05:36:01;95521.97;;;6.55;98.42
7182;BME280;3632;42.724;23.298;2024-03-08T05:38:27;95521.63;;;6.47;98.34
7182;BME280;3632;42.724;23.298;2024-03-08T05:40:54;95540.81;;;6.65;97.44
7182;BME280;3632;42.724;23.298;2024-03-08T05:43:21;95542.97;;;6.71;96.01
7182;BME280;3632;42.724;23.298;2024-03-08T05:45:48;95489.06;;;6.26;95.34
7182;BME280;3632;42.724;23.298;2024-03-08T05:48:16;95551.66;;;6.67;97.00
7182;BME280;3632;42.724;23.298;2024-03-08T05:50:44;95546.16;;;6.88;95.50
7182;BME280;3632;42.724;23.298;2024-03-08T05:53:10;95554.44;;;7.05;94.18
7182;BME280;3632;42.724;23.298;2024-03-08T05:55:38;95558.09;;;6.86;95.22
7182;BME280;3632;42.724;23.298;2024-03-08T05:58:05;95563.53;;;6.95;95.26
7182;BME280;3632;42.724;23.298;2024-03-08T06:00:33;95560.59;;;7.15;94.48
7182;BME280;3632;42.724;23.298;2024-03-08T06:03:02;95491.81;;;6.66;93.42
7182;BME280;3632;42.724;23.298;2024-03-08T06:05:30;95565.13;;;7.10;92.86
7182;BME280;3632;42.724;23.298;2024-03-08T06:07:57;95564.44;;;7.08;93.29
7182;BME280;3632;42.724;23.298;2024-03-08T06:10:24;95530.78;;;6.77;92.38
7182;BME280;3632;42.724;23.298;2024-03-08T06:12:50;95565.25;;;6.94;94.54
7182;BME280;3632;42.724;23.298;2024-03-08T06:15:17;95602.44;;;7.08;93.25
7182;BME280;3632;42.724;23.298;2024-03-08T06:17:46;95577.81;;;7.10;93.02
7182;BME280;3632;42.724;23.298;2024-03-08T06:20:13;95577.81;;;7.10;93.50
7182;BME280;3632;42.724;23.298;2024-03-08T06:22:41;95562.53;;;6.83;92.86
7182;BME280;3632;42.724;23.298;2024-03-08T06:25:10;95443.66;;;5.95;95.34
7182;BME280;3632;42.724;23.298;2024-03-08T06:27:39;95578.63;;;6.68;94.98
7182;BME280;3632;42.724;23.298;2024-03-08T06:30:08;95575.47;;;6.93;95.90
7182;BME280;3632;42.724;23.298;2024-03-08T06:32:36;95579.34;;;6.84;96.21
7182;BME280;3632;42.724;23.298;2024-03-08T06:35:03;95578.78;;;6.51;94.99
7182;BME280;3632;42.724;23.298;2024-03-08T06:37:31;95582.91;;;6.37;97.86
7182;BME280;3632;42.724;23.298;2024-03-08T06:40:00;95581.72;;;6.29;97.29
7182;BME280;3632;42.724;23.298;2024-03-08T06:42:27;95586.22;;;6.24;99.37
7182;BME280;3632;42.724;23.298;2024-03-08T06:44:54;95591.19;;;5.95;98.93
7182;BME280;3632;42.724;23.298;2024-03-08T06:47:29;95585.50;;;6.22;99.71
7182;BME280;3632;42.724;23.298;2024-03-08T06:49:56;95588.03;;;6.22;98.16
7182;BME280;3632;42.724;23.298;2024-03-08T06:52:23;95592.81;;;6.56;97.35
7182;BME280;3632;42.724;23.298;2024-03-08T06:54:50;95591.31;;;6.82;96.66
7182;BME280;3632;42.724;23.298;2024-03-08T06:57:19;95659.03;;;6.64;97.40
7182;BME280;3632;42.724;23.298;2024-03-08T06:59:47;95548.69;;;6.60;97.14
7182;BME280;3632;42.724;23.298;2024-03-08T07:02:14;95602.44;;;6.94;94.96
7182;BME280;3632;42.724;23.298;2024-03-08T07:04:40;95593.19;;;7.07;95.01
7182;BME280;3632;42.724;23.298;2024-03-08T07:07:07;95602.69;;;7.17;93.74
7182;BME280;3632;42.724;23.298;2024-03-08T07:09:35;95599.97;;;6.92;93.18
7182;BME280;3632;42.724;23.298;2024-03-08T07:12:02;95597.69;;;6.59;95.88
7182;BME280;3632;42.724;23.298;2024-03-08T07:14:30;95603.50;;;6.75;95.05
7182;BME280;3632;42.724;23.298;2024-03-08T07:16:57;95604.06;;;6.95;95.25
7182;BME280;3632;42.724;23.298;2024-03-08T07:19:24;95438.06;;;6.04;93.93
7182;BME280;3632;42.724;23.298;2024-03-08T07:21:50;95459.41;;;5.84;95.59
7182;BME280;3632;42.724;23.298;2024-03-08T07:24:17;95608.59;;;7.04;95.37
7182;BME280;3632;42.724;23.298;2024-03-08T07:27:04;95610.28;;;7.17;94.25
7182;BME280;3632;42.724;23.298;2024-03-08T07:29:33;95610.59;;;7.13;93.81
7182;BME280;3632;42.724;23.298;2024-03-08T07:32:00;95614.88;;;7.53;92.51
7182;BME280;3632;42.724;23.298;2024-03-08T07:34:38;95614.56;;;7.03;92.30
7182;BME280;3632;42.724;23.298;2024-03-08T07:37:05;95608.56;;;7.46;93.30
7182;BME280;3632;42.724;23.298;2024-03-08T07:39:37;95613.66;;;7.18;91.70
7182;BME280;3632;42.724;23.298;2024-03-08T07:42:04;95437.81;;;6.23;91.09
7182;BME280;3632;42.724;23.298;2024-03-08T07:44:30;95617.22;;;7.70;90.22
7182;BME280;3632;42.724;23.298;2024-03-08T07:46:59;95731.72;;;7.64;88.48
7182;BME280;3632;42.724;23.298;2024-03-08T07:49:25;95612.16;;;7.56;88.77
7182;BME280;3632;42.724;23.298;2024-03-08T07:51:52;95585.00;;;7.58;88.71
7182;BME280;3632;42.724;23.298;2024-03-08T07:54:19;95608.34;;;8.17;88.01
7182;BME280;3632;42.724;23.298;2024-03-08T07:56:46;95429.06;;;7.24;85.91
7182;BME280;3632;42.724;23.298;2024-03-08T07:59:13;95607.84;;;8.39;82.55
7182;BME280;3632;42.724;23.298;2024-03-08T08:01:40;95613.63;;;8.41;82.94
7182;BME280;3632;42.724;23.298;2024-03-08T08:04:08;95607.16;;;8.22;82.90
7182;BME280;3632;42.724;23.298;2024-03-08T08:06:38;95549.22;;;8.15;82.53
7182;BME280;3632;42.724;23.298;2024-03-08T08:09:06;95604.22;;;9.06;82.57
7182;BME280;3632;42.724;23.298;2024-03-08T08:11:36;95602.16;;;9.24;80.14
7182;BME280;3632;42.724;23.298;2024-03-08T08:14:03;95477.59;;;8.49;79.26
7182;BME280;3632;42.724;23.298;2024-03-08T08:16:30;95597.38;;;9.68;77.68
7182;BME280;3632;42.724;23.298;2024-03-08T08:18:57;95594.38;;;9.87;76.44
7182;BME280;3632;42.724;23.298;2024-03-08T08:21:26;95562.56;;;9.69;74.77
7182;BME280;3632;42.724;23.298;2024-03-08T08:23:52;95549.16;;;9.67;72.98
7182;BME280;3632;42.724;23.298;2024-03-08T08:26:20;95596.06;;;9.99;75.89
7182;BME280;3632;42.724;23.298;2024-03-08T08:28:47;95538.25;;;9.88;72.20
7182;BME280;3632;42.724;23.298;2024-03-08T08:31:14;95599.09;;;10.04;75.97
7182;BME280;3632;42.724;23.298;2024-03-08T08:33:41;95601.53;;;10.05;73.15
7182;BME280;3632;42.724;23.298;2024-03-08T08:36:09;95565.19;;;10.15;71.85
7182;BME280;3632;42.724;23.298;2024-03-08T08:38:37;95599.97;;;10.16;71.13
7182;BME280;3632;42.724;23.298;2024-03-08T08:41:04;95590.66;;;10.15;70.77
7182;BME280;3632;42.724;23.298;2024-03-08T08:43:31;95013.50;;;6.61;69.27
7182;BME280;3632;42.724;23.298;2024-03-08T08:45:59;95066.13;;;6.94;71.09
7182;BME280;3632;42.724;23.298;2024-03-08T08:48:26;95589.63;;;10.65;72.19
7182;BME280;3632;42.724;23.298;2024-03-08T08:50:54;95589.31;;;11.03;69.69
7182;BME280;3632;42.724;23.298;2024-03-08T08:53:21;95590.00;;;11.27;68.89
7182;BME280;3632;42.724;23.298;2024-03-08T08:55:49;95591.38;;;11.75;66.97
7182;BME280;3632;42.724;23.298;2024-03-08T08:58:16;95598.22;;;11.64;67.40
7182;BME280;3632;42.724;23.298;2024-03-08T09:00:43;95536.91;;;11.10;66.85
7182;BME280;3632;42.724;23.298;2024-03-08T09:03:10;95588.38;;;10.81;68.66
7182;BME280;3632;42.724;23.298;2024-03-08T09:05:37;95581.78;;;11.23;66.44
7182;BME280;3632;42.724;23.298;2024-03-08T09:08:04;95570.41;;;11.38;67.67
7182;BME280;3632;42.724;23.298;2024-03-08T09:10:32;95586.38;;;11.52;67.82
7182;BME280;3632;42.724;23.298;2024-03-08T09:13:01;95583.34;;;11.91;65.38
7182;BME280;3632;42.724;23.298;2024-03-08T09:15:29;95551.31;;;11.76;65.41
7182;BME280;3632;42.724;23.298;2024-03-08T09:17:56;95535.56;;;11.60;65.71
7182;BME280;3632;42.724;23.298;2024-03-08T09:20:24;95564.44;;;12.14;64.61
7182;BME280;3632;42.724;23.298;2024-03-08T09:22:51;95578.22;;;12.23;63.26
7182;BME280;3632;42.724;23.298;2024-03-08T09:25:18;95577.94;;;12.58;62.60
7182;BME280;3632;42.724;23.298;2024-03-08T09:27:45;95608.38;;;12.08;62.36
7182;BME280;3632;42.724;23.298;2024-03-08T09:30:13;95581.00;;;11.99;62.07
7182;BME280;3632;42.724;23.298;2024-03-08T09:32:40;95574.31;;;11.76;63.99
7182;BME280;3632;42.724;23.298;2024-03-08T09:35:09;95575.09;;;12.19;62.37
7182;BME280;3632;42.724;23.298;2024-03-08T09:37:36;95578.03;;;12.35;59.67
7182;BME280;3632;42.724;23.298;2024-03-08T09:40:04;95580.19;;;12.51;60.61
7182;BME280;3632;42.724;23.298;2024-03-08T09:42:34;95534.69;;;12.96;59.36
7182;BME280;3632;42.724;23.298;2024-03-08T09:45:04;95573.66;;;13.09;59.46
7182;BME280;3632;42.724;23.298;2024-03-08T09:47:38;95556.13;;;12.54;60.47
7182;BME280;3632;42.724;23.298;2024-03-08T09:50:06;95583.97;;;12.36;61.81
7182;BME280;3632;42.724;23.298;2024-03-08T09:52:34;95587.16;;;12.70;59.92
7182;BME280;3632;42.724;23.298;2024-03-08T09:55:04;95526.94;;;11.18;62.03
7182;BME280;3632;42.724;23.298;2024-03-08T09:57:31;95576.13;;;11.96;62.67
7182;BME280;3632;42.724;23.298;2024-03-08T09:59:58;95585.16;;;12.32;62.05
7182;BME280;3632;42.724;23.298;2024-03-08T10:02:25;95575.59;;;12.13;61.99
7182;BME280;3632;42.724;23.298;2024-03-08T10:04:53;95582.88;;;12.50;61.78
7182;BME280;3632;42.724;23.298;2024-03-08T10:07:20;95588.91;;;12.49;59.60
7182;BME280;3632;42.724;23.298;2024-03-08T10:09:47;95588.25;;;11.83;59.98
7182;BME280;3632;42.724;23.298;2024-03-08T10:12:16;95589.41;;;12.11;59.21
7182;BME280;3632;42.724;23.298;2024-03-08T10:14:42;95577.81;;;12.59;57.59
7182;BME280;3632;42.724;23.298;2024-03-08T10:17:09;95567.44;;;12.19;59.31
7182;BME280;3632;42.724;23.298;2024-03-08T10:19:36;95573.56;;;11.96;58.68
7182;BME280;3632;42.724;23.298;2024-03-08T10:22:05;95573.72;;;12.68;57.08
7182;BME280;3632;42.724;23.298;2024-03-08T10:24:33;95571.56;;;13.54;56.78
7182;BME280;3632;42.724;23.298;2024-03-08T10:27:00;95586.97;;;13.34;55.81
7182;BME280;3632;42.724;23.298;2024-03-08T10:29:30;95560.06;;;13.98;53.78
7182;BME280;3632;42.724;23.298;2024-03-08T10:31:57;95551.66;;;14.83;53.11
7182;BME280;3632;42.724;23.298;2024-03-08T10:34:24;95555.13;;;15.01;52.92
7182;BME280;3632;42.724;23.298;2024-03-08T10:36:51;95564.06;;;14.87;52.82
7182;BME280;3632;42.724;23.298;2024-03-08T10:39:23;95549.38;;;15.53;51.85
7182;BME280;3632;42.724;23.298;2024-03-08T10:41:56;95550.88;;;15.91;50.57
7182;BME280;3632;42.724;23.298;2024-03-08T10:44:45;95538.22;;;15.35;50.74
7182;BME280;3632;42.724;23.298;2024-03-08T10:47:17;95493.31;;;14.00;51.59
7182;BME280;3632;42.724;23.298;2024-03-08T10:49:55;95551.56;;;14.07;53.83
7182;BME280;3632;42.724;23.298;2024-03-08T10:52:29;95543.69;;;13.80;54.95
7182;BME280;3632;42.724;23.298;2024-03-08T10:54:59;95542.38;;;13.95;54.09
7182;BME280;3632;42.724;23.298;2024-03-08T10:57:28;95539.00;;;14.24;51.51
7182;BME280;3632;42.724;23.298;2024-03-08T10:59:57;95534.56;;;14.54;52.73
7182;BME280;3632;42.724;23.298;2024-03-08T11:02:25;95545.75;;;14.25;52.84
7182;BME280;3632;42.724;23.298;2024-03-08T11:04:53;95530.09;;;14.28;53.33
7182;BME280;3632;42.724;23.298;2024-03-08T11:07:21;95523.91;;;14.01;53.22
7182;BME280;3632;42.724;23.298;2024-03-08T11:09:48;95530.13;;;13.99;53.52
7182;BME280;3632;42.724;23.298;2024-03-08T11:12:24;95441.34;;;13.31;53.06
7182;BME280;3632;42.724;23.298;2024-03-08T11:14:55;95516.25;;;15.23;51.43
7182;BME280;3632;42.724;23.298;2024-03-08T11:17:26;95356.03;;;14.71;52.38
7182;BME280;3632;42.724;23.298;2024-03-08T11:20:09;95507.94;;;15.84;51.97
7182;BME280;3632;42.724;23.298;2024-03-08T11:22:41;95516.59;;;16.00;48.84
7182;BME280;3632;42.724;23.298;2024-03-08T11:25:30;95500.31;;;15.47;49.26
7182;BME280;3632;42.724;23.298;2024-03-08T11:28:09;95512.25;;;15.83;49.67
7182;BME280;3632;42.724;23.298;2024-03-08T11:30:42;95442.78;;;17.30;47.60
7182;BME280;3632;42.724;23.298;2024-03-08T11:33:11;95499.34;;;18.22;45.32
7182;BME280;3632;42.724;23.298;2024-03-08T11:35:39;95489.84;;;18.06;43.98
7182;BME280;3632;42.724;23.298;2024-03-08T11:38:07;95507.56;;;16.75;45.46
7182;BME280;3632;42.724;23.298;2024-03-08T11:40:35;95500.06;;;15.68;49.20
7182;BME280;3632;42.724;23.298;2024-03-08T11:43:03;95498.75;;;15.64;49.48
7182;BME280;3632;42.724;23.298;2024-03-08T11:45:34;95422.03;;;15.24;49.81
7182;BME280;3632;42.724;23.298;2024-03-08T11:48:02;95448.84;;;15.39;49.61
7182;BME280;3632;42.724;23.298;2024-03-08T11:50:30;95467.34;;;14.51;50.46
7182;BME280;3632;42.724;23.298;2024-03-08T11:53:01;95432.84;;;14.16;51.71
7182;BME280;3632;42.724;23.298;2024-03-08T11:55:28;95496.84;;;16.01;49.19
7182;BME280;3632;42.724;23.298;2024-03-08T11:58:00;95492.09;;;17.01;47.77
7182;BME280;3632;42.724;23.298;2024-03-08T12:00:27;95414.41;;;15.14;47.54
7182;BME280;3632;42.724;23.298;2024-03-08T12:03:05;95489.84;;;16.29;47.35
7182;BME280;3632;42.724;23.298;2024-03-08T12:05:33;95485.13;;;16.68;47.54
7182;BME280;3632;42.724;23.298;2024-03-08T12:08:00;95418.22;;;16.68;47.14
7182;BME280;3632;42.724;23.298;2024-03-08T12:10:27;95446.13;;;17.80;45.94
7182;BME280;3632;42.724;23.298;2024-03-08T12:12:55;95443.69;;;18.52;43.89
7182;BME280;3632;42.724;23.298;2024-03-08T12:15:25;95365.16;;;16.67;45.55
7182;BME280;3632;42.724;23.298;2024-03-08T12:17:54;95480.94;;;17.26;46.32
7182;BME280;3632;42.724;23.298;2024-03-08T12:20:24;95485.59;;;16.20;48.03
7182;BME280;3632;42.724;23.298;2024-03-08T12:22:52;95461.09;;;15.00;49.46
7182;BME280;3632;42.724;23.298;2024-03-08T12:25:22;95479.66;;;16.88;47.39
7182;BME280;3632;42.724;23.298;2024-03-08T12:27:49;95434.69;;;17.75;45.45
7182;BME280;3632;42.724;23.298;2024-03-08T12:30:20;95467.91;;;18.10;44.88
7182;BME280;3632;42.724;23.298;2024-03-08T12:32:48;95479.31;;;17.67;45.64
7182;BME280;3632;42.724;23.298;2024-03-08T12:35:17;95478.84;;;17.30;46.43
7182;BME280;3632;42.724;23.298;2024-03-08T12:37:45;95368.94;;;17.79;43.76
7182;BME280;3632;42.724;23.298;2024-03-08T12:40:14;95468.13;;;19.43;41.88
7182;BME280;3632;42.724;23.298;2024-03-08T12:42:43;95454.47;;;20.03;41.10
7182;BME280;3632;42.724;23.298;2024-03-08T12:45:09;95397.72;;;19.33;41.01
7182;BME280;3632;42.724;23.298;2024-03-08T12:47:36;95458.84;;;20.63;41.28
7182;BME280;3632;42.724;23.298;2024-03-08T12:50:03;95368.66;;;21.53;39.08
7182;BME280;3632;42.724;23.298;2024-03-08T12:52:30;95449.50;;;22.13;37.79
7182;BME280;3632;42.724;23.298;2024-03-08T12:54:58;95443.41;;;22.49;37.57
7182;BME280;3632;42.724;23.298;2024-03-08T12:57:28;95438.19;;;23.11;35.69
7182;BME280;3632;42.724;23.298;2024-03-08T12:59:55;95445.72;;;23.34;36.25
7182;BME280;3632;42.724;23.298;2024-03-08T13:02:21;95292.94;;;21.85;35.49
7182;BME280;3632;42.724;23.298;2024-03-08T13:04:49;95440.41;;;23.55;34.89
7182;BME280;3632;42.724;23.298;2024-03-08T13:07:21;95450.50;;;23.84;35.04
7182;BME280;3632;42.724;23.298;2024-03-08T13:09:49;95391.47;;;22.83;35.36
7182;BME280;3632;42.724;23.298;2024-03-08T13:12:17;95441.63;;;23.59;34.90
7182;BME280;3632;42.724;23.298;2024-03-08T13:14:45;95443.31;;;23.99;33.85
7182;BME280;3632;42.724;23.298;2024-03-08T13:17:12;95442.13;;;22.38;36.38
7182;BME280;3632;42.724;23.298;2024-03-08T13:19:38;95444.56;;;22.18;36.01